createdAt,value
2018-07-21T00:02:56.713Z,63.13
2018-07-21T00:05:56.662Z,61.13
2018-07-21T00:08:56.629Z,60.32
2018-07-21T00:11:56.603Z,59.01
2018-07-21T00:14:56.579Z,59.32
2018-07-21T00:17:56.540Z,59.12
2018-07-21T00:20:56.498Z,59.32
2018-07-21T00:23:56.465Z,59.34
2018-07-21T00:26:56.454Z,59.05
2018-07-21T00:29:56.398Z,60.65
2018-07-21T00:32:56.362Z,60.98
2018-07-21T00:35:56.323Z,60.55
2018-07-21T00:38:56.307Z,60.22
2018-07-21T00:41:56.257Z,59.32
2018-07-21T00:44:56.229Z,61.72
2018-07-21T00:47:56.196Z,61.66
2018-07-21T00:50:56.178Z,61.25
2018-07-21T00:53:56.129Z,61.46
2018-07-21T00:56:56.096Z,60.75
2018-07-21T00:59:56.067Z,60.55
2018-07-21T01:02:56.058Z,60.65
2018-07-21T01:05:55.994Z,60.25
2018-07-21T01:08:55.972Z,61.15
2018-07-21T01:11:55.930Z,60.45
2018-07-21T01:14:55.902Z,60.96
2018-07-21T01:17:55.867Z,60.45
2018-07-21T01:20:55.831Z,60.85
2018-07-21T01:23:55.809Z,60.55
2018-07-21T01:26:55.769Z,60.96
2018-07-21T01:29:55.730Z,60.85
2018-07-21T01:32:55.702Z,61.05
2018-07-21T01:35:55.669Z,61.46
2018-07-21T01:38:55.645Z,61.46
2018-07-21T01:41:55.590Z,61.55
2018-07-21T01:44:55.561Z,61.76
2018-07-21T01:47:55.523Z,61.46
2018-07-21T01:50:55.509Z,61.69
2018-07-21T01:53:55.463Z,61.55
2018-07-21T01:56:55.461Z,60.85
2018-07-21T01:59:55.383Z,61.08
2018-07-21T02:02:56.150Z,61.29
2018-07-21T02:05:55.324Z,62.29
2018-07-21T02:08:55.310Z,61.69
2018-07-21T02:11:55.250Z,61.88
2018-07-21T02:14:55.271Z,62.92
2018-07-21T02:17:55.191Z,62.92
2018-07-21T02:20:55.177Z,62.82
2018-07-21T02:23:55.132Z,62.89
2018-07-21T02:26:55.095Z,62.92
2018-07-21T02:29:55.067Z,63.42
2018-07-21T02:32:55.041Z,63.35
2018-07-21T02:35:54.992Z,63.65
2018-07-21T02:38:54.966Z,63.85
2018-07-21T02:41:54.929Z,63.32
2018-07-21T02:44:54.909Z,63.82
2018-07-21T02:47:54.854Z,63.62
2018-07-21T02:50:54.852Z,64.56
2018-07-21T02:53:54.783Z,63.76
2018-07-21T02:56:55.850Z,64.73
2018-07-21T02:59:54.721Z,64.73
2018-07-21T03:02:54.696Z,64.66
2018-07-21T03:05:54.664Z,65.13
2018-07-21T03:08:54.635Z,65.44
2018-07-21T03:11:54.598Z,65.26
2018-07-21T03:14:54.575Z,65.33
2018-07-21T03:17:54.522Z,65.87
2018-07-21T03:20:54.500Z,66.03
2018-07-21T03:23:54.459Z,66.94
2018-07-21T03:26:54.423Z,66.64
2018-07-21T03:29:54.411Z,66.77
2018-07-21T03:32:54.368Z,67.38
2018-07-21T03:35:54.319Z,67.58
2018-07-21T03:38:54.287Z,68.59
2018-07-21T03:41:54.253Z,68.11
2018-07-21T03:44:54.233Z,69.02
2018-07-21T03:47:54.193Z,69.32
2018-07-21T03:50:54.168Z,68.91
2018-07-21T03:53:54.131Z,69.65
2018-07-21T03:56:54.122Z,69.96
2018-07-21T03:59:54.061Z,69.49
2018-07-21T04:02:54.032Z,72.00
2018-07-21T04:05:53.988Z,72.44
2018-07-21T04:08:54.038Z,72.78
2018-07-21T04:11:53.923Z,72.98
2018-07-21T04:14:53.889Z,72.04
2018-07-21T04:17:53.854Z,71.00
2018-07-21T04:20:53.846Z,71.30
2018-07-21T04:23:53.795Z,69.38
2018-07-21T04:26:53.763Z,69.76
2018-07-21T04:29:53.723Z,69.45
2018-07-21T04:32:53.699Z,68.95
2018-07-21T04:35:53.654Z,69.42
2018-07-21T04:38:53.626Z,69.12
2018-07-21T04:41:53.590Z,68.91
2018-07-21T04:44:53.580Z,69.62
2018-07-21T04:47:53.522Z,68.38
2018-07-21T04:50:53.488Z,67.88
2018-07-21T04:53:53.460Z,67.94
2018-07-21T04:56:53.453Z,66.94
2018-07-21T04:59:53.390Z,67.55
2018-07-21T05:02:53.362Z,68.85
2018-07-21T05:05:53.332Z,69.22
2018-07-21T05:08:53.309Z,68.88
2018-07-21T05:11:53.254Z,67.65
2018-07-21T05:14:53.236Z,67.02
2018-07-21T05:17:53.189Z,61.68
2018-07-21T05:20:53.176Z,58.24
2018-07-21T05:23:53.113Z,55.99
2018-07-21T05:26:53.104Z,58.99
2018-07-21T05:29:53.056Z,60.48
2018-07-21T05:32:53.035Z,60.68
2018-07-21T05:35:52.980Z,62.64
2018-07-21T05:38:52.976Z,61.84
2018-07-21T05:41:52.928Z,62.97
2018-07-21T05:44:52.904Z,63.28
2018-07-21T05:47:52.847Z,63.75
2018-07-21T05:50:52.838Z,62.92
2018-07-21T05:53:52.805Z,63.14
2018-07-21T05:56:52.773Z,63.75
2018-07-21T05:59:52.720Z,64.25
2018-07-21T06:02:52.787Z,63.75
2018-07-21T06:05:52.659Z,62.51
2018-07-21T06:08:52.644Z,61.45
2018-07-21T06:11:52.583Z,60.72
2018-07-21T06:14:52.574Z,58.91
2018-07-21T06:17:52.528Z,54.66
2018-07-21T06:20:52.505Z,51.89
2018-07-21T06:23:52.576Z,48.94
2018-07-21T06:26:52.448Z,50.73
2018-07-21T06:29:52.389Z,52.69
2018-07-21T06:32:52.391Z,54.50
2018-07-21T06:35:52.322Z,55.46
2018-07-21T06:38:52.321Z,56.08
2018-07-21T06:41:52.254Z,58.80
2018-07-21T06:44:52.242Z,56.18
2018-07-21T06:47:52.221Z,56.25
2018-07-21T06:50:52.167Z,55.23
2018-07-21T06:53:52.140Z,56.52
2018-07-21T06:56:52.113Z,56.75
2018-07-21T06:59:52.065Z,56.15
2018-07-21T07:02:52.045Z,56.65
2018-07-21T07:05:52.028Z,56.02
2018-07-21T07:08:51.977Z,55.23
2018-07-21T07:11:51.935Z,54.88
2018-07-21T07:14:51.932Z,52.17
2018-07-21T07:17:51.862Z,52.69
2018-07-21T07:20:51.840Z,50.93
2018-07-21T07:23:51.793Z,49.12
2018-07-21T07:26:51.781Z,48.27
2018-07-21T07:29:51.774Z,48.08
2018-07-21T07:32:51.715Z,48.65
2018-07-21T07:35:51.694Z,47.96
2018-07-21T07:38:51.670Z,46.40
2018-07-21T07:41:51.629Z,45.27
2018-07-21T07:44:51.598Z,42.76
2018-07-21T07:47:51.986Z,41.33
2018-07-21T07:50:51.551Z,40.08
2018-07-21T07:53:51.493Z,38.26
2018-07-21T07:56:51.475Z,38.46
2018-07-21T07:59:51.437Z,36.74
2018-07-21T08:02:51.428Z,35.45
2018-07-21T08:05:51.382Z,32.94
2018-07-21T08:08:51.356Z,32.92
2018-07-21T08:11:51.325Z,36.40
2018-07-21T08:14:51.311Z,33.61
2018-07-21T08:17:51.290Z,31.78
2018-07-21T08:20:51.254Z,30.91
2018-07-21T08:23:51.216Z,32.29
2018-07-21T08:26:51.192Z,33.36
2018-07-21T08:29:51.151Z,30.58
2018-07-21T08:32:51.134Z,32.79
2018-07-21T08:35:51.158Z,30.90
2018-07-21T08:38:51.090Z,31.54
2018-07-21T08:41:51.040Z,33.29
2018-07-21T08:44:51.061Z,34.52
2018-07-21T08:47:50.998Z,33.94
2018-07-21T08:50:50.979Z,33.18
2018-07-21T08:53:50.954Z,36.06
2018-07-21T08:56:50.947Z,34.85
2018-07-21T08:59:50.893Z,33.65
2018-07-21T09:02:50.871Z,34.36
2018-07-21T09:05:50.904Z,36.45
2018-07-21T09:08:50.815Z,33.59
2018-07-21T09:11:50.808Z,33.14
2018-07-21T09:14:50.768Z,35.31
2018-07-21T09:17:50.727Z,35.47
2018-07-21T09:20:50.708Z,32.78
2018-07-21T09:23:50.685Z,35.17
2018-07-21T09:26:50.668Z,35.37
2018-07-21T09:29:50.610Z,37.58
2018-07-21T09:32:50.641Z,35.10
2018-07-21T09:35:50.549Z,34.34
2018-07-21T09:38:50.539Z,32.45
2018-07-21T09:41:50.529Z,32.89
2018-07-21T09:44:50.497Z,33.89
2018-07-21T09:47:50.457Z,32.17
2018-07-21T09:50:50.443Z,30.94
2018-07-21T09:53:50.392Z,30.22
2018-07-21T09:56:50.388Z,29.96
2018-07-21T09:59:50.381Z,28.68
2018-07-21T10:02:50.348Z,31.65
2018-07-21T10:05:50.303Z,33.72
2018-07-21T10:08:50.276Z,32.66
2018-07-21T10:11:50.250Z,32.13
2018-07-21T10:14:50.231Z,33.31
2018-07-21T10:17:51.131Z,30.77
2018-07-21T10:20:50.189Z,29.96
2018-07-21T10:23:50.141Z,29.95
2018-07-21T10:26:50.153Z,27.83
2018-07-21T10:29:50.089Z,29.74
2018-07-21T10:32:50.091Z,29.32
2018-07-21T10:35:50.038Z,26.94
2018-07-21T10:38:50.035Z,29.76
2018-07-21T10:41:49.994Z,27.28
2018-07-21T10:44:49.977Z,27.30
2018-07-21T10:47:49.961Z,27.55
2018-07-21T10:50:49.981Z,27.61
2018-07-21T10:53:49.915Z,27.31
2018-07-21T10:56:49.887Z,29.63
2018-07-21T10:59:49.857Z,28.50
2018-07-21T11:02:49.837Z,28.11
2018-07-21T11:05:49.789Z,27.86
2018-07-21T11:08:49.814Z,27.28
2018-07-21T11:11:49.762Z,28.38
2018-07-21T11:14:49.729Z,29.61
2018-07-21T11:17:49.706Z,29.61
2018-07-21T11:20:49.694Z,27.48
2018-07-21T11:23:49.670Z,26.76
2018-07-21T11:26:49.629Z,27.08
2018-07-21T11:29:49.614Z,28.39
2018-07-21T11:32:49.580Z,27.42
2018-07-21T11:35:49.652Z,29.39
2018-07-21T11:38:49.605Z,28.89
2018-07-21T11:41:49.493Z,27.42
2018-07-21T11:44:49.486Z,28.05
2018-07-21T11:47:49.433Z,29.10
2018-07-21T11:50:49.427Z,26.67
2018-07-21T11:53:49.394Z,27.03
2018-07-21T11:56:49.379Z,29.42
2018-07-21T11:59:49.341Z,27.34
2018-07-21T12:02:49.326Z,28.53
2018-07-21T12:05:49.309Z,25.19
2018-07-21T12:08:49.298Z,27.01
2018-07-21T12:11:49.234Z,24.10
2018-07-21T12:14:49.285Z,25.04
2018-07-21T12:17:49.216Z,24.68
2018-07-21T12:20:49.201Z,25.03
2018-07-21T12:23:49.146Z,29.06
2018-07-21T12:26:49.160Z,29.79
2018-07-21T12:29:49.095Z,29.45
2018-07-21T12:32:49.090Z,27.51
2018-07-21T12:35:49.039Z,25.52
2018-07-21T12:38:49.055Z,27.23
2018-07-21T12:41:48.998Z,29.83
2018-07-21T12:44:49.003Z,29.91
2018-07-21T12:47:48.941Z,30.12
2018-07-21T12:50:48.959Z,31.70
2018-07-21T12:53:48.888Z,29.52
2018-07-21T12:56:48.880Z,29.88
2018-07-21T12:59:48.823Z,29.27
2018-07-21T13:02:48.806Z,30.39
2018-07-21T13:05:48.778Z,30.05
2018-07-21T13:08:48.756Z,31.26
2018-07-21T13:11:48.720Z,27.95
2018-07-21T13:14:48.699Z,28.18
2018-07-21T13:17:48.658Z,27.22
2018-07-21T13:20:48.644Z,29.14
2018-07-21T13:23:48.604Z,28.19
2018-07-21T13:26:48.578Z,28.50
2018-07-21T13:29:48.552Z,27.28
2018-07-21T13:32:48.543Z,26.87
2018-07-21T13:35:48.503Z,27.28
2018-07-21T13:38:48.478Z,28.29
2018-07-21T13:41:48.468Z,26.90
2018-07-21T13:44:48.441Z,25.46
2018-07-21T13:47:48.398Z,25.45
2018-07-21T13:50:48.381Z,27.04
2018-07-21T13:53:48.403Z,27.36
2018-07-21T13:56:48.324Z,26.59
2018-07-21T13:59:48.389Z,26.95
2018-07-21T14:02:48.273Z,27.06
2018-07-21T14:05:48.245Z,27.65
2018-07-21T14:08:48.224Z,27.53
2018-07-21T14:11:48.223Z,27.23
2018-07-21T14:14:48.181Z,25.07
2018-07-21T14:17:48.185Z,24.57
2018-07-21T14:20:48.145Z,24.85
2018-07-21T14:23:48.125Z,23.68
2018-07-21T14:26:48.080Z,24.77
2018-07-21T14:29:48.224Z,25.86
2018-07-21T14:32:48.041Z,27.44
2018-07-21T14:35:48.080Z,27.11
2018-07-21T14:38:47.984Z,29.63
2018-07-21T14:41:48.010Z,30.57
2018-07-21T14:44:47.925Z,31.27
2018-07-21T14:47:49.048Z,30.07
2018-07-21T14:50:47.878Z,29.86
2018-07-21T14:53:47.846Z,27.83
2018-07-21T14:56:48.190Z,25.16
2018-07-21T14:59:47.784Z,26.48
2018-07-21T15:02:48.618Z,29.18
2018-07-21T15:05:47.718Z,29.95
2018-07-21T15:08:47.710Z,30.33
2018-07-21T15:11:47.662Z,30.15
2018-07-21T15:14:47.679Z,32.07
2018-07-21T15:17:47.631Z,30.99
2018-07-21T15:20:47.615Z,29.84
2018-07-21T15:23:47.569Z,28.33
2018-07-21T15:26:47.532Z,30.12
2018-07-21T15:29:47.498Z,32.53
2018-07-21T15:32:47.496Z,33.31
2018-07-21T15:35:47.466Z,32.45
2018-07-21T15:38:47.460Z,33.44
2018-07-21T15:41:47.379Z,30.74
2018-07-21T15:44:47.382Z,28.88
2018-07-21T15:47:47.399Z,29.08
2018-07-21T15:50:47.325Z,28.72
2018-07-21T15:53:47.262Z,28.71
2018-07-21T15:56:47.244Z,28.81
2018-07-21T15:59:47.229Z,29.20
2018-07-21T16:02:47.191Z,27.08
2018-07-21T16:05:47.164Z,29.00
2018-07-21T16:08:47.138Z,30.02
2018-07-21T16:11:47.117Z,28.79
2018-07-21T16:14:47.127Z,28.49
2018-07-21T16:17:47.048Z,29.00
2018-07-21T16:20:47.036Z,30.18
2018-07-21T16:23:47.003Z,29.81
2018-07-21T16:26:46.982Z,31.41
2018-07-21T16:29:47.098Z,32.95
2018-07-21T16:32:46.954Z,34.74
2018-07-21T16:35:46.908Z,36.07
2018-07-21T16:38:46.885Z,37.74
2018-07-21T16:41:46.845Z,36.98
2018-07-21T16:44:46.805Z,37.37
2018-07-21T16:47:46.792Z,37.78
2018-07-21T16:50:46.734Z,36.58
2018-07-21T16:53:46.687Z,37.76
2018-07-21T16:56:46.662Z,38.18
2018-07-21T16:59:46.637Z,37.66
2018-07-21T17:02:46.626Z,37.88
2018-07-21T17:05:48.076Z,38.08
2018-07-21T17:08:52.040Z,35.90
2018-07-21T17:11:46.985Z,37.10
2018-07-21T17:14:49.329Z,35.72
2018-07-21T17:17:46.718Z,36.71
2018-07-21T17:20:56.618Z,35.49
2018-07-21T17:23:46.375Z,33.25
2018-07-21T17:26:46.341Z,33.23
2018-07-21T17:29:46.425Z,33.14
2018-07-21T17:32:46.282Z,33.85
2018-07-21T17:35:46.280Z,35.06
2018-07-21T17:38:46.221Z,36.07
2018-07-21T17:41:46.173Z,39.31
2018-07-21T17:44:46.205Z,40.03
2018-07-21T17:47:46.119Z,40.76
2018-07-21T17:50:46.105Z,42.07
2018-07-21T17:53:46.049Z,42.01
2018-07-21T17:56:46.054Z,43.02
2018-07-21T17:59:45.996Z,43.33
2018-07-21T18:02:45.971Z,43.53
2018-07-21T18:05:45.926Z,44.05
2018-07-21T18:08:45.904Z,43.87
2018-07-21T18:11:45.874Z,44.96
2018-07-21T18:14:45.848Z,44.96
2018-07-21T18:17:45.804Z,44.96
2018-07-21T18:20:45.782Z,45.26
2018-07-21T18:23:45.725Z,45.18
2018-07-21T18:26:45.741Z,45.56
2018-07-21T18:29:45.676Z,45.68
2018-07-21T18:32:45.720Z,45.78
2018-07-21T18:35:45.601Z,45.87
2018-07-21T18:38:45.583Z,47.16
2018-07-21T18:41:45.526Z,46.89
2018-07-21T18:44:45.529Z,48.80
2018-07-21T18:47:45.457Z,49.99
2018-07-21T18:50:45.444Z,51.00
2018-07-21T18:53:45.490Z,50.83
2018-07-21T18:56:45.507Z,51.42
2018-07-21T18:59:45.361Z,52.31
2018-07-21T19:02:45.327Z,51.84
2018-07-21T19:05:45.274Z,52.74
2018-07-21T19:08:45.278Z,52.64
2018-07-21T19:11:45.198Z,52.44
2018-07-21T19:14:45.240Z,53.14
2018-07-21T19:32:08.004Z,52.62
2018-07-21T19:35:19.016Z,52.81
2018-07-21T19:38:07.738Z,52.91
2018-07-21T19:41:21.763Z,53.11
2018-07-21T19:44:16.416Z,52.81
2018-07-21T19:48:18.710Z,52.81
2018-07-21T19:52:26.694Z,52.81
2018-07-21T19:55:26.658Z,53.71
2018-07-21T19:58:26.632Z,53.44
2018-07-21T20:01:26.605Z,53.34
2018-07-21T20:04:26.569Z,52.74
2018-07-21T20:07:33.389Z,53.24
2018-07-21T20:10:26.509Z,53.36
2018-07-21T20:13:26.456Z,53.36
2018-07-21T20:16:26.448Z,52.89
2018-07-21T20:19:27.559Z,53.19
2018-07-21T20:22:26.401Z,53.49
2018-07-21T20:25:26.337Z,52.81
2018-07-21T20:28:26.337Z,52.94
2018-07-21T20:31:26.267Z,52.94
2018-07-21T20:34:26.257Z,53.24
2018-07-21T20:37:26.301Z,52.47
2018-07-21T20:40:26.197Z,53.86
2018-07-21T20:43:28.152Z,53.77
2018-07-21T20:46:26.129Z,52.89
2018-07-21T20:49:26.081Z,53.29
2018-07-21T20:52:26.070Z,53.29
2018-07-21T20:55:26.015Z,52.72
2018-07-21T20:58:25.981Z,52.99
2018-07-21T21:01:25.927Z,52.79
2018-07-21T21:04:25.922Z,52.99
2018-07-21T21:07:25.872Z,52.32
2018-07-21T21:10:25.848Z,52.62
2018-07-21T21:13:25.794Z,53.02
2018-07-21T21:16:25.788Z,52.62
2018-07-21T21:19:25.742Z,53.04
2018-07-21T21:22:25.796Z,53.74
2018-07-21T21:25:25.665Z,53.37
2018-07-21T21:28:25.653Z,53.97
2018-07-21T21:31:25.603Z,53.44
2018-07-21T21:34:25.580Z,53.74
2018-07-21T21:37:25.524Z,53.47
2018-07-21T21:40:25.521Z,53.77
2018-07-21T21:43:25.473Z,53.77
2018-07-21T21:46:25.450Z,53.49
2018-07-21T21:49:25.414Z,53.77
2018-07-21T21:52:25.390Z,53.69
2018-07-21T21:55:25.342Z,53.49
2018-07-21T21:58:25.318Z,53.99
2018-07-21T22:01:25.264Z,54.02
2018-07-21T22:04:25.260Z,54.32
2018-07-21T22:07:25.202Z,54.52
2018-07-21T22:10:25.256Z,54.94
2018-07-21T22:13:25.133Z,55.24
2018-07-21T22:16:25.125Z,55.05
2018-07-21T22:19:25.068Z,55.65
2018-07-21T22:22:25.057Z,55.55
2018-07-21T22:25:25.000Z,56.17
2018-07-21T22:28:25.064Z,56.37
2018-07-21T22:31:25.588Z,57.40
2018-07-21T22:34:24.953Z,57.20
2018-07-21T22:37:24.865Z,57.83
2018-07-21T22:40:24.863Z,58.33
2018-07-21T22:43:24.830Z,58.76
2018-07-21T22:46:24.783Z,59.19
2018-07-21T22:49:24.753Z,60.19
2018-07-21T22:52:24.724Z,60.19
2018-07-21T22:55:24.727Z,60.42
2018-07-21T22:58:24.671Z,60.72
2018-07-21T23:01:24.602Z,60.93
2018-07-21T23:04:24.595Z,61.55
2018-07-21T23:07:24.583Z,61.46
2018-07-21T23:10:24.530Z,60.88
2018-07-21T23:13:24.481Z,61.49
2018-07-21T23:16:24.469Z,61.96
2018-07-21T23:19:24.405Z,62.29
2018-07-21T23:22:24.413Z,62.99
2018-07-21T23:25:24.345Z,63.39
2018-07-21T23:28:24.329Z,63.02
2018-07-21T23:31:24.279Z,63.42
2018-07-21T23:34:24.273Z,63.82
2018-07-21T23:37:24.220Z,64.13
2018-07-21T23:40:24.181Z,64.13
2018-07-21T23:43:24.142Z,64.43
2018-07-21T23:46:24.125Z,64.53
2018-07-21T23:49:24.077Z,64.76
2018-07-21T23:52:24.044Z,64.79
2018-07-21T23:55:24.018Z,65.26
2018-07-21T23:58:24.002Z,65.59
